Time;durP1;ratioP1;P1;durP2;ratioP2;P2;SDS_P1;SDS_P2;PMS_P1;PMS_P2;Temp;Humidity;BMP_temperature;BMP_pressure;BME280_temperature;BME280_humidity;BME280_pressure;Samples;Min_cycle;Max_cycle;Signal;HPM_P1;HPM_P2
2024/03/05 00:01:57;;;;;;;56.60;28.10;;;;;;;3.67;88.49;99355.33;217000;1263;139563;-75
2024/03/05 00:07:02;;;;;;;43.50;26.00;;;;;;;3.69;88.49;99359.02;217200;1259;141786;-73
2024/03/05 00:12:07;;;;;;;48.00;27.60;;;;;;;3.67;88.45;99363.96;217529;1263;140392;-73
2024/03/05 00:17:12;;;;;;;46.30;24.50;;;;;;;3.66;88.48;99366.56;217381;1263;139443;-75
2024/03/05 00:22:18;;;;;;;46.00;26.70;;;;;;;3.64;88.58;99369.66;217052;1261;139962;-73
2024/03/05 00:27:25;;;;;;;43.30;26.20;;;;;;;3.65;88.85;99363.98;217966;1263;140996;-73
2024/03/05 00:32:31;;;;;;;51.70;27.90;;;;;;;3.60;88.67;99366.11;217385;1263;142523;-74
2024/03/05 00:37:37;;;;;;;44.10;26.90;;;;;;;3.56;88.72;99358.96;217607;1263;139740;-73
2024/03/05 00:42:42;;;;;;;40.40;23.80;;;;;;;3.50;88.70;99358.73;218375;1266;140748;-75
2024/03/05 00:47:46;;;;;;;47.60;25.60;;;;;;;3.50;89.02;99363.92;217274;1265;140942;-74
2024/03/05 00:53:00;;;;;;;44.90;26.90;;;;;;;3.50;89.10;99367.62;217170;1260;139482;-74
2024/03/05 00:58:06;;;;;;;48.30;29.40;;;;;;;3.53;89.32;99375.21;218257;1263;140286;-73
2024/03/05 01:03:11;;;;;;;58.30;28.40;;;;;;;3.59;89.47;99368.98;217171;1265;139837;-72
2024/03/05 01:08:16;;;;;;;43.50;25.90;;;;;;;3.60;89.33;99368.27;217220;1261;140477;-72
2024/03/05 01:13:20;;;;;;;46.00;25.70;;;;;;;3.59;89.49;99372.96;216933;1261;140120;-75
2024/03/05 01:18:24;;;;;;;43.60;25.30;;;;;;;3.54;89.38;99363.38;217519;1261;139764;-74
2024/03/05 01:23:28;;;;;;;39.80;23.60;;;;;;;3.51;89.54;99356.59;217126;1260;140300;-75
2024/03/05 01:28:34;;;;;;;39.20;23.10;;;;;;;3.48;89.50;99363.31;216926;1264;139402;-74
2024/03/05 01:33:40;;;;;;;44.60;24.60;;;;;;;3.46;89.48;99372.91;217048;1263;140118;-74
2024/03/05 01:38:44;;;;;;;41.10;21.90;;;;;;;3.45;89.71;99374.94;216939;1263;140362;-77
2024/03/05 01:43:49;;;;;;;43.50;25.10;;;;;;;3.45;89.87;99374.97;217086;1260;139859;-74
2024/03/05 01:48:54;;;;;;;43.00;23.40;;;;;;;3.48;89.85;99373.23;217117;1260;140904;-74
2024/03/05 01:53:59;;;;;;;40.30;23.60;;;;;;;3.45;89.71;99365.29;217266;1263;150998;-72
2024/03/05 01:59:05;;;;;;;37.70;20.30;;;;;;;3.42;89.68;99365.88;217090;1262;139509;-73
2024/03/05 02:04:10;;;;;;;34.10;19.90;;;;;;;3.36;89.65;99359.46;216970;1263;140193;-75
2024/03/05 02:20:34;;;;;;;25.40;16.90;;;;;;;3.17;89.75;99362.25;219975;1260;140333;-74
2024/03/05 02:25:38;;;;;;;28.90;19.00;;;;;;;3.17;89.62;99365.83;219815;1261;139514;-75
2024/03/05 02:30:42;;;;;;;24.40;15.30;;;;;;;3.19;89.54;99368.48;219873;1260;141728;-75
2024/03/05 02:35:48;;;;;;;27.90;17.30;;;;;;;3.20;89.44;99368.15;219853;1261;139983;-76
2024/03/05 02:40:53;;;;;;;30.50;19.80;;;;;;;3.18;89.36;99362.46;217948;1260;140880;-73
2024/03/05 02:45:59;;;;;;;31.40;17.60;;;;;;;3.19;89.43;99358.54;216757;1263;140047;-75
2024/03/05 02:51:04;;;;;;;29.20;17.30;;;;;;;3.17;89.60;99358.81;216919;1261;140154;-74
2024/03/05 02:56:10;;;;;;;34.30;20.80;;;;;;;3.17;89.84;99371.70;216841;1261;140740;-74
2024/03/05 03:01:14;;;;;;;31.80;20.20;;;;;;;3.17;89.72;99380.38;216895;1260;140969;-74
2024/03/05 03:06:19;;;;;;;33.70;21.20;;;;;;;3.14;89.75;99382.25;216797;1263;140783;-74
2024/03/05 03:11:24;;;;;;;37.90;22.70;;;;;;;3.13;89.96;99391.36;216861;1260;139610;-74
2024/03/05 03:16:28;;;;;;;28.10;18.50;;;;;;;3.13;89.92;99392.42;216817;1260;140468;-74
2024/03/05 03:21:33;;;;;;;22.30;14.60;;;;;;;3.11;89.78;99396.45;216990;1263;141277;-74
2024/03/05 03:26:38;;;;;;;23.20;13.60;;;;;;;3.04;89.78;99394.66;217483;1263;140435;-73
2024/03/05 03:31:46;;;;;;;25.70;15.70;;;;;;;2.98;89.60;99390.13;216920;1261;142205;-76
2024/03/05 03:36:50;;;;;;;21.90;14.80;;;;;;;2.91;89.63;99390.33;217253;1260;140552;-74
2024/03/05 03:41:55;;;;;;;20.30;13.70;;;;;;;2.88;89.96;99390.87;217138;1261;141319;-75
2024/03/05 03:47:00;;;;;;;22.90;15.00;;;;;;;2.83;89.75;99395.24;216913;1260;140739;-74
2024/03/05 03:52:05;;;;;;;16.90;13.10;;;;;;;2.77;89.65;99398.40;217025;1259;139878;-72
2024/03/05 03:57:10;;;;;;;14.50;10.20;;;;;;;2.72;89.75;99401.39;217109;1263;139737;-73
2024/03/05 04:02:14;;;;;;;18.90;11.20;;;;;;;2.63;89.40;99401.48;217861;1260;140192;-75
2024/03/05 04:07:19;;;;;;;19.50;13.50;;;;;;;2.56;89.71;99407.93;216943;1264;141831;-71
2024/03/05 04:12:25;;;;;;;14.20;9.40;;;;;;;2.52;89.92;99415.63;216996;1260;139712;-72
2024/03/05 04:17:30;;;;;;;18.00;11.90;;;;;;;2.52;90.20;99420.86;216939;1263;140239;-75
2024/03/05 04:22:37;;;;;;;18.40;11.40;;;;;;;2.55;90.44;99422.27;217033;1261;139924;-72
2024/03/05 04:27:45;;;;;;;19.30;12.20;;;;;;;2.58;90.14;99428.23;220090;1259;140055;-73
2024/03/05 04:32:52;;;;;;;14.30;10.70;;;;;;;2.58;90.25;99425.36;216970;1260;140006;-73
2024/03/05 04:38:07;;;;;;;16.30;11.40;;;;;;;2.61;90.26;99432.84;216832;1261;139925;-72
2024/03/05 04:43:12;;;;;;;19.20;10.90;;;;;;;2.63;90.29;99436.30;216945;1261;140581;-73
2024/03/05 04:48:16;;;;;;;14.30;11.10;;;;;;;2.60;90.14;99436.02;217076;1260;140054;-72
2024/03/05 04:53:22;;;;;;;18.80;11.80;;;;;;;2.54;90.09;99433.46;216712;1261;140776;-74
2024/03/05 04:58:26;;;;;;;23.20;11.80;;;;;;;2.50;90.30;99428.98;216913;1259;141710;-72
2024/03/05 05:03:31;;;;;;;22.60;13.40;;;;;;;2.48;90.31;99431.58;217006;1263;139207;-72
2024/03/05 05:08:35;;;;;;;17.00;11.80;;;;;;;2.48;90.48;99432.96;216952;1264;140065;-73
2024/03/05 05:13:40;;;;;;;19.30;11.70;;;;;;;2.50;90.46;99429.74;216976;1260;140467;-72
2024/03/05 05:18:48;;;;;;;16.20;10.50;;;;;;;2.48;90.63;99428.71;216970;1263;140945;-72
2024/03/05 05:23:51;;;;;;;21.00;12.90;;;;;;;2.44;90.49;99433.14;216865;1264;140100;-73
2024/03/05 05:28:56;;;;;;;20.50;14.50;;;;;;;2.42;90.53;99439.46;216955;1262;139696;-73
2024/03/05 05:34:00;;;;;;;17.90;12.20;;;;;;;2.41;90.81;99441.79;217166;1261;372280;-72
2024/03/05 05:39:06;;;;;;;19.80;13.30;;;;;;;2.39;90.61;99448.25;216992;1263;140632;-71
2024/03/05 05:44:11;;;;;;;22.40;13.40;;;;;;;2.39;90.91;99459.73;216901;1260;140164;-72
2024/03/05 05:49:19;;;;;;;19.60;12.60;;;;;;;2.39;90.98;99463.19;216706;1263;140424;-72
2024/03/05 05:54:24;;;;;;;22.50;13.50;;;;;;;2.41;90.93;99469.15;216804;1260;140013;-72
2024/03/05 05:59:28;;;;;;;20.20;13.30;;;;;;;2.42;91.17;99469.16;217122;1259;139970;-74
2024/03/05 06:04:38;;;;;;;22.80;13.70;;;;;;;2.46;91.16;99471.77;217022;1259;139323;-72
2024/03/05 06:09:42;;;;;;;20.80;14.00;;;;;;;2.48;91.13;99478.61;217934;1260;141073;-75
2024/03/05 06:14:46;;;;;;;21.50;12.80;;;;;;;2.49;91.38;99489.12;217706;1259;139347;-74
2024/03/05 06:19:51;;;;;;;21.00;14.80;;;;;;;2.55;91.50;99488.97;219574;1259;140498;-74
2024/03/05 06:24:57;;;;;;;19.50;15.00;;;;;;;2.62;91.64;99491.55;218385;1259;140742;-75
2024/03/05 06:30:01;;;;;;;24.30;12.90;;;;;;;2.68;91.62;99497.97;216863;1260;139917;-74
2024/03/05 06:35:09;;;;;;;22.90;14.40;;;;;;;2.70;91.44;99499.32;217641;1263;140166;-74
2024/03/05 06:40:19;;;;;;;21.40;14.50;;;;;;;2.69;91.29;99506.15;217527;1259;140269;-77
2024/03/05 06:45:27;;;;;;;21.20;13.20;;;;;;;2.67;91.38;99508.27;217089;1259;142191;-74
2024/03/05 06:50:36;;;;;;;23.20;13.00;;;;;;;2.66;91.16;99513.98;216926;1259;141592;-73
2024/03/05 07:01:07;;;;;;;19.20;11.80;;;;;;;2.58;91.19;99510.58;216929;1263;139636;-73
2024/03/05 07:06:14;;;;;;;22.20;15.60;;;;;;;2.52;91.13;99513.34;216991;1259;139563;-72
2024/03/05 07:11:27;;;;;;;20.70;14.20;;;;;;;2.49;91.45;99521.17;216831;1263;139700;-74
2024/03/05 07:16:33;;;;;;;22.00;14.40;;;;;;;2.44;91.49;99523.20;216897;1259;141727;-72
2024/03/05 07:21:38;;;;;;;26.00;13.20;;;;;;;2.39;91.40;99527.02;217038;1263;140459;-72
2024/03/05 07:26:42;;;;;;;19.50;13.50;;;;;;;2.35;91.40;99535.50;216797;1260;140058;-72
2024/03/05 07:32:04;;;;;;;19.80;14.20;;;;;;;2.34;91.52;99533.39;216888;1261;139564;-73
2024/03/05 07:37:09;;;;;;;20.40;13.90;;;;;;;2.39;91.80;99534.23;216726;1260;141051;-73
2024/03/05 07:42:14;;;;;;;20.60;11.80;;;;;;;2.46;91.84;99541.79;217303;1260;139983;-72
2024/03/05 07:47:18;;;;;;;19.10;13.40;;;;;;;2.49;91.79;99541.73;217062;1263;139673;-71
2024/03/05 07:52:21;;;;;;;19.70;12.90;;;;;;;2.56;91.87;99542.45;216817;1259;140633;-72
2024/03/05 07:57:25;;;;;;;18.00;12.10;;;;;;;2.65;92.12;99538.71;217608;1259;140460;-71
2024/03/05 08:02:30;;;;;;;20.80;12.10;;;;;;;2.70;91.74;99543.50;218114;1259;139966;-73
2024/03/05 08:07:35;;;;;;;20.00;13.00;;;;;;;2.76;91.68;99545.15;219818;1259;141513;-73
2024/03/05 08:12:44;;;;;;;21.30;14.90;;;;;;;2.84;91.87;99547.01;219787;1260;140639;-72
2024/03/05 08:17:49;;;;;;;21.70;12.70;;;;;;;2.94;91.74;99547.88;217390;1262;235395;-75
2024/03/05 08:22:56;;;;;;;21.50;12.10;;;;;;;3.09;92.03;99553.25;219056;1259;140563;-73
2024/03/05 08:28:00;;;;;;;19.80;13.50;;;;;;;3.18;91.47;99553.92;217626;1259;140051;-72
2024/03/05 08:33:04;;;;;;;23.40;13.50;;;;;;;3.21;91.37;99557.06;217617;1261;140273;-72
2024/03/05 08:38:09;;;;;;;25.30;14.90;;;;;;;3.23;91.33;99563.98;217019;1263;140483;-71
2024/03/05 08:43:14;;;;;;;24.20;15.20;;;;;;;3.27;91.36;99566.80;216922;1260;139413;-73
2024/03/05 08:48:18;;;;;;;27.30;14.30;;;;;;;3.32;91.34;99573.30;217289;1263;140814;-74
2024/03/05 08:53:23;;;;;;;19.20;13.50;;;;;;;3.43;91.44;99574.48;217058;1261;140241;-72
2024/03/05 11:04:24;;;;;;;23.40;15.10;;;;;;;4.45;89.74;99648.64;217120;1263;139552;-72
2024/03/05 11:09:30;;;;;;;22.40;15.10;;;;;;;4.59;90.04;99645.40;217430;1259;140999;-73
2024/03/05 11:14:35;;;;;;;21.90;12.50;;;;;;;4.67;89.47;99647.25;217600;1259;140765;-73
2024/03/05 11:19:42;;;;;;;20.40;12.40;;;;;;;4.76;89.57;99650.94;216897;1259;140277;-73
2024/03/05 11:24:50;;;;;;;22.30;13.40;;;;;;;4.86;89.38;99649.72;216765;1260;139983;-72
2024/03/05 11:30:10;;;;;;;28.10;16.00;;;;;;;4.97;89.40;99657.85;216956;1261;140091;-74
2024/03/05 11:35:18;;;;;;;16.70;13.20;;;;;;;5.01;88.66;99654.05;216766;1261;141598;-73
2024/03/05 11:40:34;;;;;;;23.50;13.30;;;;;;;4.97;88.28;99656.52;217718;1261;140117;-72
2024/03/05 11:45:49;;;;;;;22.40;12.70;;;;;;;4.99;88.17;99656.11;216820;1264;140347;-76
2024/03/05 11:50:56;;;;;;;21.00;13.10;;;;;;;5.12;88.57;99658.91;219833;1261;140220;-75
2024/03/05 11:56:08;;;;;;;17.40;12.50;;;;;;;5.19;88.23;99659.73;217991;1262;140242;-73
2024/03/05 12:01:15;;;;;;;20.20;14.20;;;;;;;5.21;87.70;99658.36;217988;1261;140367;-72
2024/03/05 12:06:20;;;;;;;17.50;12.90;;;;;;;5.27;87.39;99659.52;217419;1262;140598;-73
2024/03/05 12:11:25;;;;;;;18.20;11.70;;;;;;;5.29;87.52;99663.99;218240;1261;139587;-73
2024/03/05 12:16:31;;;;;;;15.40;11.10;;;;;;;5.32;87.23;99668.20;217003;1261;140118;-73
2024/03/05 12:21:36;;;;;;;18.50;13.70;;;;;;;5.46;87.36;99670.27;216759;1263;139561;-73
2024/03/05 12:26:41;;;;;;;17.50;11.90;;;;;;;5.54;86.66;99676.81;217057;1263;140233;-73
2024/03/05 12:31:50;;;;;;;19.60;12.40;;;;;;;5.57;86.58;99681.98;217001;1263;139712;-74
2024/03/05 12:37:01;;;;;;;25.30;15.40;;;;;;;5.59;86.68;99687.72;217327;1259;140214;-74
2024/03/05 12:42:08;;;;;;;14.90;10.00;;;;;;;5.62;86.60;99692.69;216930;1263;140346;-73
2024/03/05 12:47:16;;;;;;;19.20;13.10;;;;;;;5.68;86.67;99692.33;216899;1259;140169;-75
2024/03/05 12:52:22;;;;;;;19.40;13.80;;;;;;;5.73;86.30;99693.14;216848;1262;141263;-73
2024/03/05 12:57:32;;;;;;;18.10;12.40;;;;;;;5.78;86.36;99702.83;217162;1263;139755;-72
2024/03/05 13:02:37;;;;;;;25.40;13.90;;;;;;;5.81;86.14;99708.38;217009;1259;139931;-73
2024/03/05 13:07:43;;;;;;;22.90;14.80;;;;;;;5.89;86.31;99714.21;217125;1259;141008;-73
2024/03/05 13:12:48;;;;;;;17.70;11.60;;;;;;;5.95;86.15;99713.21;217129;1259;139438;-73
2024/03/05 13:17:53;;;;;;;15.80;11.50;;;;;;;5.95;85.67;99721.11;217009;1263;140073;-74
2024/03/05 13:22:57;;;;;;;15.90;10.00;;;;;;;5.94;85.53;99728.92;217048;1264;139828;-74
2024/03/05 13:28:03;;;;;;;10.90;9.50;;;;;;;5.95;85.54;99730.99;217673;1259;142574;-74
2024/03/05 13:33:08;;;;;;;10.40;9.00;;;;;;;5.94;85.22;99738.04;217657;1263;139277;-73
2024/03/05 13:38:12;;;;;;;12.80;10.00;;;;;;;5.88;84.59;99744.13;217087;1263;141925;-73
2024/03/05 13:43:17;;;;;;;13.80;10.40;;;;;;;5.78;84.83;99746.68;217077;1259;140583;-73
2024/03/05 13:48:21;;;;;;;30.80;15.90;;;;;;;5.72;84.90;99754.54;217018;1259;139646;-74
2024/03/05 13:53:28;;;;;;;15.90;12.40;;;;;;;5.68;84.96;99756.08;219081;1260;140054;-74
2024/03/05 13:58:34;;;;;;;13.70;10.60;;;;;;;5.64;84.84;99761.52;219316;1259;141974;-73
2024/03/05 14:03:39;;;;;;;16.20;11.60;;;;;;;5.59;84.51;99768.75;218205;1263;139689;-74
2024/03/05 14:08:44;;;;;;;13.90;10.30;;;;;;;5.55;84.89;99767.89;217122;1259;140266;-74
2024/03/05 14:13:49;;;;;;;13.00;9.60;;;;;;;5.53;84.88;99772.60;218107;1259;140622;-73
2024/03/05 14:18:53;;;;;;;19.50;10.90;;;;;;;5.45;84.35;99778.23;217583;1262;140090;-72
2024/03/05 14:23:59;;;;;;;13.20;9.90;;;;;;;5.40;84.83;99783.05;217206;1263;141268;-74
2024/03/05 14:29:03;;;;;;;24.20;17.60;;;;;;;5.37;84.41;99785.20;216990;1259;139520;-74
2024/03/05 14:34:07;;;;;;;12.20;9.40;;;;;;;5.40;84.83;99789.80;217285;1259;139581;-73
2024/03/05 14:39:14;;;;;;;12.40;9.90;;;;;;;5.37;84.68;99788.94;217105;1263;139345;-72
2024/03/05 14:44:19;;;;;;;14.10;11.10;;;;;;;5.30;84.75;99796.43;217139;1264;139735;-73
2024/03/05 14:49:23;;;;;;;14.60;12.50;;;;;;;5.24;85.10;99801.73;217251;1263;139434;-76
2024/03/05 14:54:27;;;;;;;16.80;14.70;;;;;;;5.18;85.06;99807.87;216955;1263;140549;-73
2024/03/05 14:59:31;;;;;;;14.10;10.00;;;;;;;5.15;84.83;99813.71;217978;1259;140070;-73
2024/03/05 15:04:35;;;;;;;17.50;10.80;;;;;;;5.10;84.94;99824.55;217021;1259;140432;-73
2024/03/05 15:09:38;;;;;;;14.50;10.80;;;;;;;5.04;84.86;99831.23;217005;1264;140583;-73
2024/03/05 15:14:42;;;;;;;16.30;10.80;;;;;;;4.97;84.99;99833.50;216819;1259;139833;-72
2024/03/05 15:19:49;;;;;;;16.00;11.00;;;;;;;4.91;84.79;99843.46;217003;1263;139940;-73
2024/03/05 15:24:53;;;;;;;13.70;12.00;;;;;;;4.90;85.01;99850.13;217176;1263;140277;-72
2024/03/05 15:29:57;;;;;;;13.70;10.80;;;;;;;4.86;85.20;99852.96;216951;1263;141438;-75
2024/03/05 15:35:01;;;;;;;15.40;11.60;;;;;;;4.81;84.94;99856.27;216840;1264;139945;-73
2024/03/05 15:40:15;;;;;;;15.50;10.90;;;;;;;4.80;85.35;99858.70;216962;1259;140685;-73
2024/03/05 15:45:21;;;;;;;15.60;11.60;;;;;;;4.80;85.19;99866.45;216950;1263;139561;-72
2024/03/05 15:50:29;;;;;;;15.90;11.40;;;;;;;4.76;84.96;99868.17;218507;1260;140899;-72
2024/03/05 15:55:38;;;;;;;14.90;11.20;;;;;;;4.71;85.08;99870.66;217959;1260;140568;-72
2024/03/05 16:00:44;;;;;;;13.20;11.00;;;;;;;4.69;85.21;99876.73;216887;1264;139850;-72
2024/03/05 16:05:48;;;;;;;14.20;11.60;;;;;;;4.67;85.01;99878.05;218020;1263;140041;-73
2024/03/05 16:11:07;;;;;;;17.00;10.60;;;;;;;4.63;85.07;99885.05;216979;1264;140153;-72
2024/03/05 16:16:13;;;;;;;16.60;11.70;;;;;;;4.61;84.91;99888.82;216853;1260;139691;-73
2024/03/05 16:21:17;;;;;;;13.60;11.00;;;;;;;4.60;85.56;99899.05;217184;1260;141239;-77
2024/03/05 16:26:21;;;;;;;18.40;12.50;;;;;;;4.59;85.11;99907.94;217101;1259;141720;-72
2024/03/05 16:31:25;;;;;;;19.40;11.80;;;;;;;4.56;85.59;99909.89;216929;1259;140683;-73
2024/03/05 16:36:29;;;;;;;18.70;14.20;;;;;;;4.52;85.53;99911.68;216759;1263;140322;-73
2024/03/05 16:41:33;;;;;;;19.50;14.60;;;;;;;4.49;85.37;99918.77;216879;1259;140800;-73
2024/03/05 16:46:37;;;;;;;26.80;17.40;;;;;;;4.47;85.38;99923.61;217072;1259;140129;-73
2024/03/05 16:51:43;;;;;;;17.50;13.20;;;;;;;4.44;85.51;99927.77;217221;1259;140581;-72
2024/03/05 16:56:47;;;;;;;26.30;17.60;;;;;;;4.38;85.49;99939.98;217014;1260;139887;-72
2024/03/05 17:01:51;;;;;;;22.10;13.00;;;;;;;4.34;85.80;99945.14;217095;1263;140400;-73
2024/03/05 17:06:58;;;;;;;20.10;13.30;;;;;;;4.27;85.41;99946.78;217967;1263;139614;-72
2024/03/05 17:12:05;;;;;;;16.30;12.60;;;;;;;4.18;85.71;99950.95;217129;1259;140620;-72
2024/03/05 17:17:11;;;;;;;18.90;13.40;;;;;;;4.12;85.72;99951.83;217047;1263;141136;-72
2024/03/05 17:22:18;;;;;;;19.60;13.10;;;;;;;4.09;86.09;99951.30;217338;1263;140638;-73
2024/03/05 17:27:28;;;;;;;16.00;11.90;;;;;;;4.08;85.98;99954.79;219996;1259;140280;-73
2024/03/05 17:32:33;;;;;;;25.40;14.80;;;;;;;4.05;86.06;99959.14;219656;1259;338056;-73
2024/03/05 17:37:39;;;;;;;22.40;14.60;;;;;;;4.05;85.96;99968.18;219887;1259;140713;-73
2024/03/05 17:42:43;;;;;;;24.50;13.30;;;;;;;4.08;86.27;99974.34;219670;1259;140952;-73
2024/03/05 17:47:48;;;;;;;18.50;14.10;;;;;;;4.10;86.22;99976.69;217002;1259;139683;-73
2024/03/05 17:52:52;;;;;;;19.60;12.90;;;;;;;4.13;86.14;99980.09;218613;1260;139438;-73
2024/03/05 17:57:58;;;;;;;28.20;16.20;;;;;;;4.13;86.28;99980.54;217114;1259;139579;-73
2024/03/05 18:03:04;;;;;;;24.00;15.30;;;;;;;4.16;86.57;99985.84;217066;1259;140467;-73
2024/03/05 18:08:09;;;;;;;28.80;17.40;;;;;;;4.15;86.51;99988.19;217281;1259;139861;-75
2024/03/05 18:13:15;;;;;;;37.40;19.30;;;;;;;4.14;86.38;99998.33;217153;1263;141006;-73
2024/03/05 18:18:23;;;;;;;46.50;25.40;;;;;;;4.12;86.60;99995.98;217365;1263;140289;-76
2024/03/05 18:23:28;;;;;;;55.20;30.00;;;;;;;4.11;86.78;99998.20;217267;1263;139959;-72
2024/03/05 18:28:33;;;;;;;43.40;26.70;;;;;;;4.11;86.75;99998.81;217051;1262;140374;-72
2024/03/05 18:33:38;;;;;;;45.80;27.70;;;;;;;4.11;86.84;100004.20;217435;1263;139823;-72
2024/03/05 18:38:47;;;;;;;43.10;26.90;;;;;;;4.10;86.78;100006.95;217045;1263;140039;-73
2024/03/05 18:43:52;;;;;;;41.30;23.70;;;;;;;4.07;86.52;100015.61;216792;1259;140145;-73
2024/03/05 18:48:58;;;;;;;41.70;24.40;;;;;;;4.06;87.13;100015.52;217063;1260;141060;-72
2024/03/05 18:54:03;;;;;;;28.80;18.50;;;;;;;4.04;87.22;100024.05;216691;1263;139885;-72
2024/03/05 18:59:07;;;;;;;27.10;18.10;;;;;;;4.02;87.17;100027.39;217013;1263;140401;-72
2024/03/05 19:04:12;;;;;;;30.50;19.80;;;;;;;4.00;87.29;100033.95;216970;1261;139900;-72
2024/03/05 19:09:17;;;;;;;22.40;16.30;;;;;;;3.99;87.43;100038.85;217066;1263;140219;-73
2024/03/05 19:14:21;;;;;;;28.50;17.60;;;;;;;3.95;87.36;100050.95;219800;1263;139785;-73
2024/03/05 19:19:25;;;;;;;27.30;19.20;;;;;;;3.96;87.35;100049.66;217247;1263;140670;-73
2024/03/05 19:24:31;;;;;;;24.90;17.90;;;;;;;3.98;87.63;100058.73;217629;1259;139860;-72
2024/03/05 19:29:36;;;;;;;30.70;18.10;;;;;;;3.97;87.42;100057.54;220015;1259;140500;-73
2024/03/05 19:34:40;;;;;;;27.40;20.40;;;;;;;3.97;87.57;100058.27;218781;1259;140058;-72
2024/03/05 19:39:46;;;;;;;25.50;16.90;;;;;;;3.95;87.29;100057.52;219589;1262;140131;-73
2024/03/05 19:44:51;;;;;;;26.90;17.40;;;;;;;3.91;87.33;100054.80;217455;1263;140724;-72
2024/03/05 19:50:04;;;;;;;25.00;19.30;;;;;;;3.83;87.26;100056.63;217917;1263;140673;-72
2024/03/05 19:55:11;;;;;;;28.10;19.00;;;;;;;3.79;87.60;100054.73;217910;1264;140038;-73
2024/03/05 20:00:18;;;;;;;23.40;18.20;;;;;;;3.75;87.46;100055.02;216879;1263;140453;-74
2024/03/05 20:05:25;;;;;;;24.50;16.40;;;;;;;3.69;87.24;100054.26;217218;1263;139813;-73
2024/03/05 20:10:29;;;;;;;23.70;15.60;;;;;;;3.56;86.99;100055.86;216929;1266;140835;-74
2024/03/05 20:15:34;;;;;;;25.50;18.10;;;;;;;3.46;86.93;100059.25;218174;1263;140632;-72
2024/03/05 20:20:40;;;;;;;23.80;16.70;;;;;;;3.36;86.87;100055.20;217140;1263;140231;-72
2024/03/05 20:25:45;;;;;;;22.50;15.90;;;;;;;3.16;86.18;100056.16;217106;1263;139797;-72
2024/03/05 20:30:53;;;;;;;26.80;17.90;;;;;;;2.89;85.96;100063.13;216949;1263;140286;-70
2024/03/05 20:36:00;;;;;;;25.20;16.30;;;;;;;2.71;86.11;100068.79;217200;1263;139959;-72
2024/03/05 20:41:07;;;;;;;22.10;14.30;;;;;;;2.59;86.00;100077.35;217275;1261;140431;-72
2024/03/05 20:46:14;;;;;;;25.50;16.60;;;;;;;2.39;85.76;100083.10;216870;1261;140860;-74
2024/03/05 20:51:19;;;;;;;33.50;21.70;;;;;;;2.24;86.08;100083.11;217183;1263;140613;-75
2024/03/05 20:56:24;;;;;;;30.20;18.70;;;;;;;2.16;86.60;100085.19;217046;1260;139777;-72
2024/03/05 21:01:29;;;;;;;27.80;18.30;;;;;;;2.07;86.67;100088.49;217241;1263;140875;-71
2024/03/05 21:06:34;;;;;;;22.70;16.00;;;;;;;1.98;86.41;100095.98;217255;1261;140576;-72
2024/03/05 21:11:39;;;;;;;30.90;17.80;;;;;;;1.77;85.92;100098.70;216990;1263;139549;-71
2024/03/05 21:16:44;;;;;;;27.90;17.30;;;;;;;1.63;86.17;100095.50;218068;1263;141347;-72
2024/03/05 21:21:49;;;;;;;27.80;17.90;;;;;;;1.55;86.40;100100.95;216961;1261;140354;-70
2024/03/05 21:26:52;;;;;;;32.90;18.80;;;;;;;1.41;85.78;100101.56;216797;1263;140131;-72
2024/03/05 21:32:16;;;;;;;23.10;15.40;;;;;;;1.27;86.05;100101.05;218115;1260;140440;-71
2024/03/05 21:37:20;;;;;;;27.90;17.90;;;;;;;1.15;86.12;100103.44;216962;1261;141051;-72
2024/03/05 21:42:25;;;;;;;30.10;20.00;;;;;;;1.04;86.43;100104.25;217030;1261;139998;-70
2024/03/05 21:47:29;;;;;;;25.00;17.60;;;;;;;1.00;86.31;100100.96;218228;1260;145240;-72
2024/03/05 21:52:33;;;;;;;27.90;18.10;;;;;;;0.90;86.11;100099.66;217074;1261;139791;-73
2024/03/05 21:57:38;;;;;;;29.10;19.20;;;;;;;0.81;86.13;100104.05;217141;1263;139882;-72
2024/03/05 22:02:43;;;;;;;28.80;18.90;;;;;;;0.73;86.31;100107.02;216971;1263;141912;-71
2024/03/05 22:07:46;;;;;;;27.60;17.20;;;;;;;0.63;86.05;100111.04;216949;1260;139857;-72
2024/03/05 22:12:50;;;;;;;31.40;19.10;;;;;;;0.54;85.68;100114.54;217129;1261;139719;-71
2024/03/05 22:17:53;;;;;;;35.30;20.30;;;;;;;0.37;85.88;100125.38;217037;1260;141687;-71
2024/03/05 22:22:59;;;;;;;31.00;18.90;;;;;;;0.28;86.25;100128.08;216991;1263;139999;-71
2024/03/05 22:28:03;;;;;;;56.30;36.50;;;;;;;0.24;86.80;100134.95;216987;1259;140022;-71
2024/03/05 22:33:10;;;;;;;42.30;28.30;;;;;;;0.25;86.78;100138.46;217957;1263;139677;-71
2024/03/05 22:38:14;;;;;;;41.30;24.30;;;;;;;0.24;86.82;100143.66;216875;1264;141068;-71
2024/03/05 22:43:22;;;;;;;43.40;25.60;;;;;;;0.24;87.20;100142.39;217106;1263;141075;-71
2024/03/05 22:48:30;;;;;;;44.10;27.80;;;;;;;0.25;87.41;100142.71;217038;1263;140963;-71
2024/03/05 22:53:35;;;;;;;46.40;28.90;;;;;;;0.21;87.21;100143.09;217280;1260;140600;-69
2024/03/05 22:58:38;;;;;;;51.20;28.80;;;;;;;0.19;87.46;100145.75;217124;1261;140957;-71
2024/03/05 23:03:41;;;;;;;51.70;30.90;;;;;;;0.17;87.52;100148.52;217086;1263;139792;-69
2024/03/05 23:08:45;;;;;;;56.50;33.20;;;;;;;0.12;87.28;100148.05;216962;1261;140389;-71
2024/03/05 23:13:49;;;;;;;47.10;29.10;;;;;;;0.06;87.39;100144.98;217863;1260;139883;-71
2024/03/05 23:18:54;;;;;;;50.90;30.60;;;;;;;0.02;87.25;100148.43;216975;1263;140443;-76
2024/03/05 23:23:58;;;;;;;53.00;27.60;;;;;;;-0.02;87.37;100153.51;217280;1261;140368;-72
2024/03/05 23:29:01;;;;;;;41.10;25.40;;;;;;;-0.12;87.21;100150.67;217164;1263;140801;-70
2024/03/05 23:34:07;;;;;;;44.30;25.00;;;;;;;-0.18;87.41;100152.17;217258;1263;144426;-74
2024/03/05 23:39:13;;;;;;;45.70;25.60;;;;;;;-0.21;87.21;100154.21;218227;1259;141824;-70
2024/03/05 23:44:17;;;;;;;59.10;35.50;;;;;;;-0.17;87.58;100158.92;216995;1263;140172;-70
2024/03/05 23:49:22;;;;;;;83.60;47.10;;;;;;;-0.16;87.94;100164.67;217563;1260;140561;-70
2024/03/05 23:54:25;;;;;;;63.70;40.10;;;;;;;-0.11;88.39;100172.04;216929;1263;139794;-71
2024/03/05 23:59:30;;;;;;;71.80;42.50;;;;;;;-0.13;87.96;100175.56;217074;1260;231253;-70
